sensor_id;sensor_type;location;lat;lon;timestamp;temperature;humidity
19172;DHT22;9718;52.200;21.052;2022-09-03T00:01:52;9.20;99.90
19172;DHT22;9718;52.200;21.052;2022-09-03T00:04:35;9.30;99.90
19172;DHT22;9718;52.200;21.052;2022-09-03T00:07:10;9.20;99.90
19172;DHT22;9718;52.200;21.052;2022-09-03T00:09:45;9.10;99.90
19172;DHT22;9718;52.200;21.052;2022-09-03T00:12:21;9.00;99.90
19172;DHT22;9718;52.200;21.052;2022-09-03T00:15:09;8.90;99.90
19172;DHT22;9718;52.200;21.052;2022-09-03T00:17:39;8.90;99.90
19172;DHT22;9718;52.200;21.052;2022-09-03T00:20:21;8.90;99.90
19172;DHT22;9718;52.200;21.052;2022-09-03T00:22:53;8.80;99.90
19172;DHT22;9718;52.200;21.052;2022-09-03T00:25:32;8.80;99.90
19172;DHT22;9718;52.200;21.052;2022-09-03T00:28:03;8.80;99.90
19172;DHT22;9718;52.200;21.052;2022-09-03T00:30:32;8.90;99.90
19172;DHT22;9718;52.200;21.052;2022-09-03T00:33:09;8.90;99.90
19172;DHT22;9718;52.200;21.052;2022-09-03T00:38:31;8.90;99.90
19172;DHT22;9718;52.200;21.052;2022-09-03T00:41:13;8.90;99.90
19172;DHT22;9718;52.200;21.052;2022-09-03T00:55:30;8.70;99.90
19172;DHT22;9718;52.200;21.052;2022-09-03T01:00:37;8.70;99.90
19172;DHT22;9718;52.200;21.052;2022-09-03T01:03:09;8.70;99.90
19172;DHT22;9718;52.200;21.052;2022-09-03T01:16:56;8.90;99.90
19172;DHT22;9718;52.200;21.052;2022-09-03T01:19:45;8.80;99.90
19172;DHT22;9718;52.200;21.052;2022-09-03T01:25:16;8.80;99.90
19172;DHT22;9718;52.200;21.052;2022-09-03T01:31:22;8.70;99.90
19172;DHT22;9718;52.200;21.052;2022-09-03T01:34:17;8.70;99.90
19172;DHT22;9718;52.200;21.052;2022-09-03T01:37:13;8.60;99.90
19172;DHT22;9718;52.200;21.052;2022-09-03T01:40:02;8.60;99.90
19172;DHT22;9718;52.200;21.052;2022-09-03T01:51:05;8.40;99.90
19172;DHT22;9718;52.200;21.052;2022-09-03T01:56:44;8.50;99.90
19172;DHT22;9718;52.200;21.052;2022-09-03T01:59:32;8.40;99.90
19172;DHT22;9718;52.200;21.052;2022-09-03T02:02:08;8.40;99.90
19172;DHT22;9718;52.200;21.052;2022-09-03T02:04:38;8.40;99.90
19172;DHT22;9718;52.200;21.052;2022-09-03T02:07:05;8.30;99.90
19172;DHT22;9718;52.200;21.052;2022-09-03T02:09:33;8.30;99.90
19172;DHT22;9718;52.200;21.052;2022-09-03T02:12:18;8.30;99.90
19172;DHT22;9718;52.200;21.052;2022-09-03T02:14:46;8.40;99.90
19172;DHT22;9718;52.200;21.052;2022-09-03T02:17:14;8.30;99.90
19172;DHT22;9718;52.200;21.052;2022-09-03T02:19:41;8.30;99.90
19172;DHT22;9718;52.200;21.052;2022-09-03T02:22:08;8.30;99.90
19172;DHT22;9718;52.200;21.052;2022-09-03T02:24:36;8.30;99.90
19172;DHT22;9718;52.200;21.052;2022-09-03T02:27:03;8.20;99.90
19172;DHT22;9718;52.200;21.052;2022-09-03T02:29:31;8.20;99.90
19172;DHT22;9718;52.200;21.052;2022-09-03T02:31:59;8.20;99.90
19172;DHT22;9718;52.200;21.052;2022-09-03T02:34:26;8.20;99.90
19172;DHT22;9718;52.200;21.052;2022-09-03T02:36:53;8.10;99.90
19172;DHT22;9718;52.200;21.052;2022-09-03T02:39:20;8.10;99.90
19172;DHT22;9718;52.200;21.052;2022-09-03T02:41:54;8.10;99.90
19172;DHT22;9718;52.200;21.052;2022-09-03T02:44:27;8.00;99.90
19172;DHT22;9718;52.200;21.052;2022-09-03T02:47:03;8.00;99.90
19172;DHT22;9718;52.200;21.052;2022-09-03T02:49:31;8.00;99.90
19172;DHT22;9718;52.200;21.052;2022-09-03T02:52:00;8.00;99.90
19172;DHT22;9718;52.200;21.052;2022-09-03T02:54:32;7.90;99.90
19172;DHT22;9718;52.200;21.052;2022-09-03T02:57:02;7.80;99.90
19172;DHT22;9718;52.200;21.052;2022-09-03T02:59:30;7.80;99.90
19172;DHT22;9718;52.200;21.052;2022-09-03T03:01:57;7.80;99.90
19172;DHT22;9718;52.200;21.052;2022-09-03T03:04:28;7.80;99.90
19172;DHT22;9718;52.200;21.052;2022-09-03T03:06:55;7.80;99.90
19172;DHT22;9718;52.200;21.052;2022-09-03T03:09:23;7.80;99.90
19172;DHT22;9718;52.200;21.052;2022-09-03T03:11:50;7.80;99.90
19172;DHT22;9718;52.200;21.052;2022-09-03T03:14:18;7.80;99.90
19172;DHT22;9718;52.200;21.052;2022-09-03T03:16:45;7.80;99.90
19172;DHT22;9718;52.200;21.052;2022-09-03T03:19:13;7.80;99.90
19172;DHT22;9718;52.200;21.052;2022-09-03T03:21:40;7.80;99.90
19172;DHT22;9718;52.200;21.052;2022-09-03T03:24:08;7.70;99.90
19172;DHT22;9718;52.200;21.052;2022-09-03T03:26:35;7.70;99.90
19172;DHT22;9718;52.200;21.052;2022-09-03T03:29:03;7.60;99.90
19172;DHT22;9718;52.200;21.052;2022-09-03T03:31:33;7.70;99.90
19172;DHT22;9718;52.200;21.052;2022-09-03T03:34:02;7.60;99.90
19172;DHT22;9718;52.200;21.052;2022-09-03T03:36:31;7.60;99.90
19172;DHT22;9718;52.200;21.052;2022-09-03T03:39:00;7.60;99.90
19172;DHT22;9718;52.200;21.052;2022-09-03T03:41:35;7.60;99.90
19172;DHT22;9718;52.200;21.052;2022-09-03T03:44:06;7.50;99.90
19172;DHT22;9718;52.200;21.052;2022-09-03T03:46:36;7.50;99.90
19172;DHT22;9718;52.200;21.052;2022-09-03T03:49:05;7.40;99.90
19172;DHT22;9718;52.200;21.052;2022-09-03T03:51:33;7.40;99.90
19172;DHT22;9718;52.200;21.052;2022-09-03T03:54:01;7.30;99.90
19172;DHT22;9718;52.200;21.052;2022-09-03T03:56:32;7.20;99.90
19172;DHT22;9718;52.200;21.052;2022-09-03T03:59:00;7.20;99.90
19172;DHT22;9718;52.200;21.052;2022-09-03T04:01:28;7.20;99.90
19172;DHT22;9718;52.200;21.052;2022-09-03T04:03:57;7.10;99.90
19172;DHT22;9718;52.200;21.052;2022-09-03T04:06:26;7.10;99.90
19172;DHT22;9718;52.200;21.052;2022-09-03T04:08:53;7.10;99.90
19172;DHT22;9718;52.200;21.052;2022-09-03T04:11:22;7.10;99.90
19172;DHT22;9718;52.200;21.052;2022-09-03T04:13:50;7.10;99.90
19172;DHT22;9718;52.200;21.052;2022-09-03T04:16:23;7.10;99.90
19172;DHT22;9718;52.200;21.052;2022-09-03T04:18:53;7.10;99.90
19172;DHT22;9718;52.200;21.052;2022-09-03T04:21:26;7.10;99.90
19172;DHT22;9718;52.200;21.052;2022-09-03T04:23:56;7.20;99.90
19172;DHT22;9718;52.200;21.052;2022-09-03T04:26:29;7.20;99.90
19172;DHT22;9718;52.200;21.052;2022-09-03T04:29:03;7.30;99.90
19172;DHT22;9718;52.200;21.052;2022-09-03T04:31:31;7.40;99.90
19172;DHT22;9718;52.200;21.052;2022-09-03T04:33:58;7.50;99.90
19172;DHT22;9718;52.200;21.052;2022-09-03T04:36:28;7.60;99.90
19172;DHT22;9718;52.200;21.052;2022-09-03T04:38:58;7.80;99.90
19172;DHT22;9718;52.200;21.052;2022-09-03T04:41:27;7.90;99.90
19172;DHT22;9718;52.200;21.052;2022-09-03T04:43:57;8.00;99.90
19172;DHT22;9718;52.200;21.052;2022-09-03T04:46:26;8.10;99.90
19172;DHT22;9718;52.200;21.052;2022-09-03T04:48:54;8.30;99.90
19172;DHT22;9718;52.200;21.052;2022-09-03T04:51:24;8.70;99.90
19172;DHT22;9718;52.200;21.052;2022-09-03T04:53:55;9.10;99.90
19172;DHT22;9718;52.200;21.052;2022-09-03T04:56:25;9.30;99.90
19172;DHT22;9718;52.200;21.052;2022-09-03T04:58:57;9.40;99.90
19172;DHT22;9718;52.200;21.052;2022-09-03T05:01:29;9.60;99.90
19172;DHT22;9718;52.200;21.052;2022-09-03T05:03:57;9.70;99.90
19172;DHT22;9718;52.200;21.052;2022-09-03T05:06:26;9.80;99.90
19172;DHT22;9718;52.200;21.052;2022-09-03T05:08:54;9.90;99.90
19172;DHT22;9718;52.200;21.052;2022-09-03T05:11:23;10.00;99.90
19172;DHT22;9718;52.200;21.052;2022-09-03T05:13:52;10.00;99.90
19172;DHT22;9718;52.200;21.052;2022-09-03T05:16:22;10.00;99.90
19172;DHT22;9718;52.200;21.052;2022-09-03T05:18:54;10.10;99.90
19172;DHT22;9718;52.200;21.052;2022-09-03T05:21:22;10.20;99.90
19172;DHT22;9718;52.200;21.052;2022-09-03T05:23:51;10.30;99.90
19172;DHT22;9718;52.200;21.052;2022-09-03T05:26:23;10.30;99.90
19172;DHT22;9718;52.200;21.052;2022-09-03T05:28:56;10.50;99.90
19172;DHT22;9718;52.200;21.052;2022-09-03T05:31:27;10.60;99.90
19172;DHT22;9718;52.200;21.052;2022-09-03T05:33:57;10.70;99.90
19172;DHT22;9718;52.200;21.052;2022-09-03T05:36:28;10.90;99.90
19172;DHT22;9718;52.200;21.052;2022-09-03T05:38:57;11.00;99.90
19172;DHT22;9718;52.200;21.052;2022-09-03T05:41:26;11.10;99.90
19172;DHT22;9718;52.200;21.052;2022-09-03T05:43:54;11.30;99.90
19172;DHT22;9718;52.200;21.052;2022-09-03T05:46:30;11.40;99.90
19172;DHT22;9718;52.200;21.052;2022-09-03T05:49:03;11.60;99.90
19172;DHT22;9718;52.200;21.052;2022-09-03T05:51:32;11.70;99.90
19172;DHT22;9718;52.200;21.052;2022-09-03T05:54:00;11.90;99.90
19172;DHT22;9718;52.200;21.052;2022-09-03T05:56:30;12.00;99.90
19172;DHT22;9718;52.200;21.052;2022-09-03T05:58:59;12.30;99.90
19172;DHT22;9718;52.200;21.052;2022-09-03T06:01:30;12.40;99.90
19172;DHT22;9718;52.200;21.052;2022-09-03T06:04:01;12.60;99.90
19172;DHT22;9718;52.200;21.052;2022-09-03T06:06:31;12.80;99.90
19172;DHT22;9718;52.200;21.052;2022-09-03T06:09:00;12.80;99.90
19172;DHT22;9718;52.200;21.052;2022-09-03T06:11:29;13.00;99.90
19172;DHT22;9718;52.200;21.052;2022-09-03T06:13:57;13.20;99.90
19172;DHT22;9718;52.200;21.052;2022-09-03T06:16:28;13.30;99.90
19172;DHT22;9718;52.200;21.052;2022-09-03T06:19:01;13.50;99.90
19172;DHT22;9718;52.200;21.052;2022-09-03T06:21:29;13.70;99.90
19172;DHT22;9718;52.200;21.052;2022-09-03T06:23:57;13.80;99.90
19172;DHT22;9718;52.200;21.052;2022-09-03T06:26:27;14.00;99.90
19172;DHT22;9718;52.200;21.052;2022-09-03T06:28:56;14.20;99.90
19172;DHT22;9718;52.200;21.052;2022-09-03T06:31:23;14.40;99.90
19172;DHT22;9718;52.200;21.052;2022-09-03T06:33:51;14.40;99.90
19172;DHT22;9718;52.200;21.052;2022-09-03T06:36:22;14.50;99.90
19172;DHT22;9718;52.200;21.052;2022-09-03T06:38:55;14.70;99.90
19172;DHT22;9718;52.200;21.052;2022-09-03T06:41:25;14.90;99.90
19172;DHT22;9718;52.200;21.052;2022-09-03T06:43:54;15.10;99.90
19172;DHT22;9718;52.200;21.052;2022-09-03T06:46:25;15.20;99.90
19172;DHT22;9718;52.200;21.052;2022-09-03T06:48:52;15.40;99.90
19172;DHT22;9718;52.200;21.052;2022-09-03T06:51:26;15.80;99.90
19172;DHT22;9718;52.200;21.052;2022-09-03T06:54:02;16.20;99.90
19172;DHT22;9718;52.200;21.052;2022-09-03T06:56:30;16.60;99.90
19172;DHT22;9718;52.200;21.052;2022-09-03T06:59:13;17.20;99.90
19172;DHT22;9718;52.200;21.052;2022-09-03T07:01:42;17.70;99.90
19172;DHT22;9718;52.200;21.052;2022-09-03T07:04:14;18.00;99.90
19172;DHT22;9718;52.200;21.052;2022-09-03T07:06:46;18.40;99.90
19172;DHT22;9718;52.200;21.052;2022-09-03T07:09:13;18.50;99.90
19172;DHT22;9718;52.200;21.052;2022-09-03T07:11:44;18.70;99.90
19172;DHT22;9718;52.200;21.052;2022-09-03T07:14:16;18.90;99.90
19172;DHT22;9718;52.200;21.052;2022-09-03T07:16:44;19.10;99.90
19172;DHT22;9718;52.200;21.052;2022-09-03T07:19:12;19.10;99.90
19172;DHT22;9718;52.200;21.052;2022-09-03T07:21:39;19.10;99.90
19172;DHT22;9718;52.200;21.052;2022-09-03T07:24:15;19.00;99.90
19172;DHT22;9718;52.200;21.052;2022-09-03T07:26:42;19.00;99.90
19172;DHT22;9718;52.200;21.052;2022-09-03T07:29:15;19.00;99.90
19172;DHT22;9718;52.200;21.052;2022-09-03T07:31:47;18.90;99.90
19172;DHT22;9718;52.200;21.052;2022-09-03T07:34:18;18.90;99.90
19172;DHT22;9718;52.200;21.052;2022-09-03T07:36:48;18.90;99.90
19172;DHT22;9718;52.200;21.052;2022-09-03T07:39:18;18.80;99.90
19172;DHT22;9718;52.200;21.052;2022-09-03T07:41:46;19.10;99.90
19172;DHT22;9718;52.200;21.052;2022-09-03T07:44:15;19.30;99.90
19172;DHT22;9718;52.200;21.052;2022-09-03T07:46:46;19.60;99.90
19172;DHT22;9718;52.200;21.052;2022-09-03T07:49:18;20.00;99.90
19172;DHT22;9718;52.200;21.052;2022-09-03T07:51:50;20.00;99.90
19172;DHT22;9718;52.200;21.052;2022-09-03T07:54:20;20.00;99.90
19172;DHT22;9718;52.200;21.052;2022-09-03T07:56:48;20.10;99.90
19172;DHT22;9718;52.200;21.052;2022-09-03T07:59:15;20.30;99.90
19172;DHT22;9718;52.200;21.052;2022-09-03T08:01:42;20.30;99.90
19172;DHT22;9718;52.200;21.052;2022-09-03T08:04:12;20.50;99.90
19172;DHT22;9718;52.200;21.052;2022-09-03T08:06:39;20.80;99.90
19172;DHT22;9718;52.200;21.052;2022-09-03T08:09:09;21.20;99.90
19172;DHT22;9718;52.200;21.052;2022-09-03T08:11:40;21.20;99.90
19172;DHT22;9718;52.200;21.052;2022-09-03T08:14:11;21.30;99.90
19172;DHT22;9718;52.200;21.052;2022-09-03T08:16:41;21.30;99.90
19172;DHT22;9718;52.200;21.052;2022-09-03T08:19:09;20.90;99.90
19172;DHT22;9718;52.200;21.052;2022-09-03T08:21:38;20.80;99.90
19172;DHT22;9718;52.200;21.052;2022-09-03T08:24:08;20.90;99.90
19172;DHT22;9718;52.200;21.052;2022-09-03T08:26:39;20.80;99.90
19172;DHT22;9718;52.200;21.052;2022-09-03T08:29:08;20.70;99.90
19172;DHT22;9718;52.200;21.052;2022-09-03T08:31:38;21.10;99.90
19172;DHT22;9718;52.200;21.052;2022-09-03T08:34:06;21.50;99.90
19172;DHT22;9718;52.200;21.052;2022-09-03T08:36:36;21.60;99.90
19172;DHT22;9718;52.200;21.052;2022-09-03T08:39:05;21.50;99.90
19172;DHT22;9718;52.200;21.052;2022-09-03T08:51:55;21.20;99.90
19172;DHT22;9718;52.200;21.052;2022-09-03T08:54:29;21.40;99.90
19172;DHT22;9718;52.200;21.052;2022-09-03T08:57:00;21.60;99.90
19172;DHT22;9718;52.200;21.052;2022-09-03T08:59:31;21.70;99.90
19172;DHT22;9718;52.200;21.052;2022-09-03T09:02:14;21.50;99.90
19172;DHT22;9718;52.200;21.052;2022-09-03T09:08:02;22.00;99.90
19172;DHT22;9718;52.200;21.052;2022-09-03T09:10:39;21.60;99.90
19172;DHT22;9718;52.200;21.052;2022-09-03T09:13:34;21.60;99.90
19172;DHT22;9718;52.200;21.052;2022-09-03T09:21:33;22.20;99.90
19172;DHT22;9718;52.200;21.052;2022-09-03T09:24:05;22.60;99.90
19172;DHT22;9718;52.200;21.052;2022-09-03T09:26:34;22.80;99.90
19172;DHT22;9718;52.200;21.052;2022-09-03T09:29:07;22.70;99.90
19172;DHT22;9718;52.200;21.052;2022-09-03T09:31:37;22.50;99.90
19172;DHT22;9718;52.200;21.052;2022-09-03T09:34:07;22.30;99.90
19172;DHT22;9718;52.200;21.052;2022-09-03T09:36:50;22.20;99.90
19172;DHT22;9718;52.200;21.052;2022-09-03T09:39:18;22.30;99.90
19172;DHT22;9718;52.200;21.052;2022-09-03T09:42:09;22.40;99.90
19172;DHT22;9718;52.200;21.052;2022-09-03T09:44:40;22.50;99.90
19172;DHT22;9718;52.200;21.052;2022-09-03T09:49:42;22.90;99.90
19172;DHT22;9718;52.200;21.052;2022-09-03T09:52:17;23.10;99.90
19172;DHT22;9718;52.200;21.052;2022-09-03T09:54:45;23.10;99.90
19172;DHT22;9718;52.200;21.052;2022-09-03T09:57:20;23.10;99.90
19172;DHT22;9718;52.200;21.052;2022-09-03T09:59:48;22.60;99.90
19172;DHT22;9718;52.200;21.052;2022-09-03T10:02:22;22.50;99.90
19172;DHT22;9718;52.200;21.052;2022-09-03T10:05:01;22.50;99.90
19172;DHT22;9718;52.200;21.052;2022-09-03T10:07:37;22.30;99.90
19172;DHT22;9718;52.200;21.052;2022-09-03T10:10:15;22.40;99.90
19172;DHT22;9718;52.200;21.052;2022-09-03T10:12:58;22.20;99.90
19172;DHT22;9718;52.200;21.052;2022-09-03T10:18:19;22.70;98.50
19172;DHT22;9718;52.200;21.052;2022-09-03T10:21:01;22.70;99.70
19172;DHT22;9718;52.200;21.052;2022-09-03T10:26:16;22.90;99.30
19172;DHT22;9718;52.200;21.052;2022-09-03T10:28:50;23.10;98.50
19172;DHT22;9718;52.200;21.052;2022-09-03T10:34:33;23.50;98.70
19172;DHT22;9718;52.200;21.052;2022-09-03T10:46:16;24.00;96.30
19172;DHT22;9718;52.200;21.052;2022-09-03T10:51:30;24.00;96.90
19172;DHT22;9718;52.200;21.052;2022-09-03T10:59:35;24.10;96.20
19172;DHT22;9718;52.200;21.052;2022-09-03T11:05:13;24.00;94.80
19172;DHT22;9718;52.200;21.052;2022-09-03T11:08:09;24.10;94.70
19172;DHT22;9718;52.200;21.052;2022-09-03T11:10:49;23.90;94.60
19172;DHT22;9718;52.200;21.052;2022-09-03T11:13:26;24.10;94.90
19172;DHT22;9718;52.200;21.052;2022-09-03T11:16:08;23.90;94.20
19172;DHT22;9718;52.200;21.052;2022-09-03T11:18:47;23.60;94.40
19172;DHT22;9718;52.200;21.052;2022-09-03T11:21:19;23.80;95.00
19172;DHT22;9718;52.200;21.052;2022-09-03T11:23:52;23.70;93.50
19172;DHT22;9718;52.200;21.052;2022-09-03T11:26:27;23.80;94.00
19172;DHT22;9718;52.200;21.052;2022-09-03T11:31:55;24.20;94.70
19172;DHT22;9718;52.200;21.052;2022-09-03T11:37:20;24.20;93.90
19172;DHT22;9718;52.200;21.052;2022-09-03T11:40:13;24.00;93.30
19172;DHT22;9718;52.200;21.052;2022-09-03T11:42:46;23.90;94.70
19172;DHT22;9718;52.200;21.052;2022-09-03T11:47:50;23.50;94.20
19172;DHT22;9718;52.200;21.052;2022-09-03T11:55:55;23.40;93.50
19172;DHT22;9718;52.200;21.052;2022-09-03T11:58:30;23.80;94.40
19172;DHT22;9718;52.200;21.052;2022-09-03T12:01:03;24.20;93.80
19172;DHT22;9718;52.200;21.052;2022-09-03T12:03:52;24.20;93.20
19172;DHT22;9718;52.200;21.052;2022-09-03T12:18:11;23.70;93.10
19172;DHT22;9718;52.200;21.052;2022-09-03T12:21:02;23.80;94.10
19172;DHT22;9718;52.200;21.052;2022-09-03T12:23:47;23.90;93.60
19172;DHT22;9718;52.200;21.052;2022-09-03T12:26:25;23.50;93.00
19172;DHT22;9718;52.200;21.052;2022-09-03T12:28:58;23.60;94.30
19172;DHT22;9718;52.200;21.052;2022-09-03T12:31:28;23.80;93.80
19172;DHT22;9718;52.200;21.052;2022-09-03T12:34:17;24.10;93.80
19172;DHT22;9718;52.200;21.052;2022-09-03T12:36:46;24.20;92.70
19172;DHT22;9718;52.200;21.052;2022-09-03T12:39:22;23.60;94.40
19172;DHT22;9718;52.200;21.052;2022-09-03T12:42:17;24.00;94.20
19172;DHT22;9718;52.200;21.052;2022-09-03T12:44:46;24.30;93.50
19172;DHT22;9718;52.200;21.052;2022-09-03T12:47:16;24.30;93.80
19172;DHT22;9718;52.200;21.052;2022-09-03T12:50:08;24.10;92.60
19172;DHT22;9718;52.200;21.052;2022-09-03T12:56:11;24.10;93.60
19172;DHT22;9718;52.200;21.052;2022-09-03T12:58:35;24.30;92.80
19172;DHT22;9718;52.200;21.052;2022-09-03T13:01:20;23.90;92.70
19172;DHT22;9718;52.200;21.052;2022-09-03T13:04:05;24.00;93.10
19172;DHT22;9718;52.200;21.052;2022-09-03T13:09:19;23.80;92.80
19172;DHT22;9718;52.200;21.052;2022-09-03T13:11:48;23.80;93.00
19172;DHT22;9718;52.200;21.052;2022-09-03T13:14:18;24.00;94.00
19172;DHT22;9718;52.200;21.052;2022-09-03T13:22:21;23.30;92.60
19172;DHT22;9718;52.200;21.052;2022-09-03T13:28:20;23.30;93.10
19172;DHT22;9718;52.200;21.052;2022-09-03T13:33:31;23.70;93.80
19172;DHT22;9718;52.200;21.052;2022-09-03T13:36:08;23.30;92.30
19172;DHT22;9718;52.200;21.052;2022-09-03T13:38:47;23.00;93.50
19172;DHT22;9718;52.200;21.052;2022-09-03T13:46:46;23.80;92.90
19172;DHT22;9718;52.200;21.052;2022-09-03T13:49:43;23.70;92.40
19172;DHT22;9718;52.200;21.052;2022-09-03T13:52:52;23.40;92.30
19172;DHT22;9718;52.200;21.052;2022-09-03T13:58:00;23.40;92.20
19172;DHT22;9718;52.200;21.052;2022-09-03T14:00:30;23.30;91.80
19172;DHT22;9718;52.200;21.052;2022-09-03T14:03:11;23.30;92.30
19172;DHT22;9718;52.200;21.052;2022-09-03T14:17:11;23.10;93.10
19172;DHT22;9718;52.200;21.052;2022-09-03T14:22:57;22.90;93.40
19172;DHT22;9718;52.200;21.052;2022-09-03T14:25:26;23.00;93.60
19172;DHT22;9718;52.200;21.052;2022-09-03T14:28:19;23.10;92.80
19172;DHT22;9718;52.200;21.052;2022-09-03T14:45:49;22.40;92.30
19172;DHT22;9718;52.200;21.052;2022-09-03T14:51:22;22.30;93.70
19172;DHT22;9718;52.200;21.052;2022-09-03T15:02:32;22.00;92.60
19172;DHT22;9718;52.200;21.052;2022-09-03T15:07:59;21.90;92.90
19172;DHT22;9718;52.200;21.052;2022-09-03T15:10:48;21.70;93.50
19172;DHT22;9718;52.200;21.052;2022-09-03T15:13:45;21.60;93.90
19172;DHT22;9718;52.200;21.052;2022-09-03T15:30:17;21.40;94.50
19172;DHT22;9718;52.200;21.052;2022-09-03T15:35:50;21.50;93.30
19172;DHT22;9718;52.200;21.052;2022-09-03T15:41:04;21.40;93.30
19172;DHT22;9718;52.200;21.052;2022-09-03T15:43:34;21.40;94.20
19172;DHT22;9718;52.200;21.052;2022-09-03T15:46:12;21.40;93.90
19172;DHT22;9718;52.200;21.052;2022-09-03T15:52:27;21.30;94.10
19172;DHT22;9718;52.200;21.052;2022-09-03T15:55:14;21.20;93.60
19172;DHT22;9718;52.200;21.052;2022-09-03T15:57:54;21.20;94.10
19172;DHT22;9718;52.200;21.052;2022-09-03T16:09:23;20.80;95.20
19172;DHT22;9718;52.200;21.052;2022-09-03T16:12:15;20.70;95.20
19172;DHT22;9718;52.200;21.052;2022-09-03T16:15:03;20.60;95.00
19172;DHT22;9718;52.200;21.052;2022-09-03T16:20:30;20.50;95.30
19172;DHT22;9718;52.200;21.052;2022-09-03T16:23:24;20.40;95.60
19172;DHT22;9718;52.200;21.052;2022-09-03T16:26:17;20.30;95.60
19172;DHT22;9718;52.200;21.052;2022-09-03T16:28:54;20.30;96.00
19172;DHT22;9718;52.200;21.052;2022-09-03T16:34:27;20.20;96.50
19172;DHT22;9718;52.200;21.052;2022-09-03T16:37:25;20.10;96.30
19172;DHT22;9718;52.200;21.052;2022-09-03T16:40:16;20.00;97.20
19172;DHT22;9718;52.200;21.052;2022-09-03T16:43:18;19.90;97.10
19172;DHT22;9718;52.200;21.052;2022-09-03T16:49:39;19.60;96.80
19172;DHT22;9718;52.200;21.052;2022-09-03T17:00:13;19.40;98.00
19172;DHT22;9718;52.200;21.052;2022-09-03T17:10:49;18.90;98.60
19172;DHT22;9718;52.200;21.052;2022-09-03T17:21:21;18.50;99.90
19172;DHT22;9718;52.200;21.052;2022-09-03T17:40:40;16.90;99.90
19172;DHT22;9718;52.200;21.052;2022-09-03T17:49:01;16.40;99.90
19172;DHT22;9718;52.200;21.052;2022-09-03T17:56:59;15.90;99.90
19172;DHT22;9718;52.200;21.052;2022-09-03T18:02:34;15.60;99.90
19172;DHT22;9718;52.200;21.052;2022-09-03T18:05:26;15.50;99.90
19172;DHT22;9718;52.200;21.052;2022-09-03T18:07:59;15.30;99.90
19172;DHT22;9718;52.200;21.052;2022-09-03T18:16:31;14.90;99.90
19172;DHT22;9718;52.200;21.052;2022-09-03T18:19:28;14.80;99.90
19172;DHT22;9718;52.200;21.052;2022-09-03T18:21:59;14.80;99.90
19172;DHT22;9718;52.200;21.052;2022-09-03T18:24:58;14.60;99.90
19172;DHT22;9718;52.200;21.052;2022-09-03T18:27:48;14.50;99.90
19172;DHT22;9718;52.200;21.052;2022-09-03T18:30:38;14.40;99.90
19172;DHT22;9718;52.200;21.052;2022-09-03T18:33:27;14.30;99.90
19172;DHT22;9718;52.200;21.052;2022-09-03T18:36:13;14.20;99.90
19172;DHT22;9718;52.200;21.052;2022-09-03T18:39:15;14.20;99.90
19172;DHT22;9718;52.200;21.052;2022-09-03T18:45:27;14.10;99.90
19172;DHT22;9718;52.200;21.052;2022-09-03T18:48:47;14.00;99.90
19172;DHT22;9718;52.200;21.052;2022-09-03T19:01:31;13.50;99.90
19172;DHT22;9718;52.200;21.052;2022-09-03T19:04:54;13.40;99.90
19172;DHT22;9718;52.200;21.052;2022-09-03T19:08:05;13.30;99.90
19172;DHT22;9718;52.200;21.052;2022-09-03T19:11:01;13.20;99.90
19172;DHT22;9718;52.200;21.052;2022-09-03T19:13:48;13.30;99.90
19172;DHT22;9718;52.200;21.052;2022-09-03T19:16:54;13.20;99.90
19172;DHT22;9718;52.200;21.052;2022-09-03T19:20:07;13.30;99.90
19172;DHT22;9718;52.200;21.052;2022-09-03T19:22:57;13.30;99.90
19172;DHT22;9718;52.200;21.052;2022-09-03T19:25:43;13.30;99.90
19172;DHT22;9718;52.200;21.052;2022-09-03T19:28:30;13.30;99.90
19172;DHT22;9718;52.200;21.052;2022-09-03T19:31:44;13.40;99.90
19172;DHT22;9718;52.200;21.052;2022-09-03T19:46:59;12.90;99.90
19172;DHT22;9718;52.200;21.052;2022-09-03T19:50:07;12.80;99.90
19172;DHT22;9718;52.200;21.052;2022-09-03T19:53:01;12.70;99.90
19172;DHT22;9718;52.200;21.052;2022-09-03T19:56:06;12.60;99.90
19172;DHT22;9718;52.200;21.052;2022-09-03T19:59:00;12.50;99.90
19172;DHT22;9718;52.200;21.052;2022-09-03T20:01:47;12.50;99.90
19172;DHT22;9718;52.200;21.052;2022-09-03T20:04:42;12.40;99.90
19172;DHT22;9718;52.200;21.052;2022-09-03T20:07:29;12.40;99.90
19172;DHT22;9718;52.200;21.052;2022-09-03T20:10:16;12.40;99.90
19172;DHT22;9718;52.200;21.052;2022-09-03T20:13:13;12.40;99.90
19172;DHT22;9718;52.200;21.052;2022-09-03T20:21:55;12.20;99.90
19172;DHT22;9718;52.200;21.052;2022-09-03T20:24:53;12.00;99.90
19172;DHT22;9718;52.200;21.052;2022-09-03T20:30:21;11.80;99.90
19172;DHT22;9718;52.200;21.052;2022-09-03T20:41:36;11.40;99.90
19172;DHT22;9718;52.200;21.052;2022-09-03T20:50:18;11.10;99.90
19172;DHT22;9718;52.200;21.052;2022-09-03T20:53:06;11.10;99.90
19172;DHT22;9718;52.200;21.052;2022-09-03T20:55:42;11.10;99.90
19172;DHT22;9718;52.200;21.052;2022-09-03T21:07:07;11.20;99.90
19172;DHT22;9718;52.200;21.052;2022-09-03T21:09:54;11.20;99.90
19172;DHT22;9718;52.200;21.052;2022-09-03T21:15:57;11.10;99.90
19172;DHT22;9718;52.200;21.052;2022-09-03T21:18:33;11.10;99.90
19172;DHT22;9718;52.200;21.052;2022-09-03T21:26:41;10.80;99.90
19172;DHT22;9718;52.200;21.052;2022-09-03T21:29:20;10.70;99.90
19172;DHT22;9718;52.200;21.052;2022-09-03T21:31:58;10.60;99.90
19172;DHT22;9718;52.200;21.052;2022-09-03T21:37:35;10.50;99.90
19172;DHT22;9718;52.200;21.052;2022-09-03T21:40:04;10.40;99.90
19172;DHT22;9718;52.200;21.052;2022-09-03T21:42:42;10.40;99.90
19172;DHT22;9718;52.200;21.052;2022-09-03T21:45:13;10.40;99.90
19172;DHT22;9718;52.200;21.052;2022-09-03T21:47:50;10.40;99.90
19172;DHT22;9718;52.200;21.052;2022-09-03T21:50:21;10.40;99.90
19172;DHT22;9718;52.200;21.052;2022-09-03T21:56:26;10.50;99.90
19172;DHT22;9718;52.200;21.052;2022-09-03T22:02:12;10.40;99.90
19172;DHT22;9718;52.200;21.052;2022-09-03T22:04:43;10.30;99.90
19172;DHT22;9718;52.200;21.052;2022-09-03T22:07:37;10.30;99.90
19172;DHT22;9718;52.200;21.052;2022-09-03T22:10:29;10.20;99.90
19172;DHT22;9718;52.200;21.052;2022-09-03T22:16:31;10.00;99.90
19172;DHT22;9718;52.200;21.052;2022-09-03T22:19:01;10.10;99.90
19172;DHT22;9718;52.200;21.052;2022-09-03T22:21:39;10.00;99.90
19172;DHT22;9718;52.200;21.052;2022-09-03T22:32:25;9.80;99.90
19172;DHT22;9718;52.200;21.052;2022-09-03T22:40:47;9.50;99.90
19172;DHT22;9718;52.200;21.052;2022-09-03T22:43:28;9.50;99.90
19172;DHT22;9718;52.200;21.052;2022-09-03T22:46:07;9.50;99.90
19172;DHT22;9718;52.200;21.052;2022-09-03T22:49:17;9.50;99.90
19172;DHT22;9718;52.200;21.052;2022-09-03T22:52:10;9.60;99.90
19172;DHT22;9718;52.200;21.052;2022-09-03T22:57:18;9.90;99.90
19172;DHT22;9718;52.200;21.052;2022-09-03T23:00:08;10.00;99.90
19172;DHT22;9718;52.200;21.052;2022-09-03T23:02:36;10.00;99.90